Tropical Cyclones
[Index]
Main Index Home Page Stock Weather Photos Extreme Storms Discussion Storm News and Storm Chasing Reports Tropical Cyclones / Hurricanes / Typhoons Weather Data and Links Wild Fires / Bushfires Weather Observation Techniques Weather Picture Catalogue Tornado Pictures and Reports Stock Video Footage and DVDs for sale
Season 2015-2016 Tropical Cyclone TUNI Track Map
Season 2015-2016 Summaries: [BoM-AU] [JTWC-AU] [JTWC-SIO] [JTWC-SPAC] [JTWC-SH]
<<- Previous TC | JTWC 2015-2016 Season | Next TC ->>

click for intensity scale information  Lat/long Grid: Show Hide

 Date Labels: Show Hide

Joint Typhoon Warning Centre Cyclone Data

Name: TUNI

26 Nov 2015 00:00 UTC to 30 Nov 2015 12:00 UTC

    date/time    lat    long     hPa   cat  kts
2015-11-26 00   10.1   178.0    1007         20          
2015-11-26 06   10.1   178.7    1007         20          
2015-11-26 12   10.2   179.5    1007         20          
2015-11-26 18   10.6   179.4W   1007         20          
2015-11-27 00   11.2   178.4W   1001         25          
2015-11-27 06   11.7   177.6W   1000         30          
2015-11-27 12   12.3   176.6W   1000         30          
2015-11-27 18   12.9   175.7W    996         35          
2015-11-28 00   13.3   175.0W    993    1    40          
2015-11-28 06   13.7   174.3W    993    1    40          
2015-11-28 12   14.2   173.5W    993    1    40          
2015-11-28 18   14.9   172.5W    993    1    40          
2015-11-29 00   15.7   171.5W    993    1    40          
2015-11-29 06   16.6   170.5W    993    1    40          
2015-11-29 12   17.3   169.8W    996         35          
2015-11-29 18   17.7   169.3W    996         35          
2015-11-30 00   18.3   168.5W   1000         30          
2015-11-30 06   19.1   167.9W   1000         30          
2015-11-30 12   19.6   167.7W   1000         25          
Winds are 1-min average.

Tropical cyclone tracks developed by Michael Bath using data from the Joint Typhoon Warning Centre Best Tracks and Google Maps.


[Australian Severe Weather index] [Copyright Notice] [Email Contacts] [Search This Site] [Privacy Policy]
Document: tropical_cyclone_tuni.htm Updated: 28 June 2017